sensor_id;sensor_type;location;lat;lon;timestamp;P1;durP1;ratioP1;P2;durP2;ratioP2
21517;SDS011;61765;45.794;24.150;2023-05-10T00:00:20;7.28;;;4.05;;
21517;SDS011;61765;45.794;24.150;2023-05-10T00:08:30;5.25;;;3.90;;
21517;SDS011;61765;45.794;24.150;2023-05-10T00:16:35;4.80;;;4.03;;
21517;SDS011;61765;45.794;24.150;2023-05-10T00:24:43;5.22;;;4.10;;
21517;SDS011;61765;45.794;24.150;2023-05-10T00:32:49;7.97;;;4.30;;
21517;SDS011;61765;45.794;24.150;2023-05-10T00:40:57;6.10;;;4.32;;
21517;SDS011;61765;45.794;24.150;2023-05-10T00:49:05;8.27;;;4.47;;
21517;SDS011;61765;45.794;24.150;2023-05-10T00:57:13;6.65;;;4.13;;
21517;SDS011;61765;45.794;24.150;2023-05-10T01:05:19;5.90;;;4.55;;
21517;SDS011;61765;45.794;24.150;2023-05-10T01:13:30;5.97;;;3.90;;
21517;SDS011;61765;45.794;24.150;2023-05-10T01:21:41;4.65;;;3.58;;
21517;SDS011;61765;45.794;24.150;2023-05-10T01:30:05;6.32;;;4.43;;
21517;SDS011;61765;45.794;24.150;2023-05-10T01:38:32;6.78;;;4.53;;
21517;SDS011;61765;45.794;24.150;2023-05-10T01:46:48;8.27;;;4.40;;
21517;SDS011;61765;45.794;24.150;2023-05-10T01:55:02;10.65;;;4.53;;
21517;SDS011;61765;45.794;24.150;2023-05-10T02:03:10;6.82;;;4.43;;
21517;SDS011;61765;45.794;24.150;2023-05-10T02:11:19;4.22;;;3.83;;
21517;SDS011;61765;45.794;24.150;2023-05-10T02:19:26;6.07;;;4.50;;
21517;SDS011;61765;45.794;24.150;2023-05-10T02:27:37;5.85;;;4.88;;
21517;SDS011;61765;45.794;24.150;2023-05-10T03:19:01;9.70;;;4.40;;
21517;SDS011;61765;45.794;24.150;2023-05-10T03:27:11;9.40;;;4.68;;
21517;SDS011;61765;45.794;24.150;2023-05-10T03:35:21;11.18;;;7.80;;
21517;SDS011;61765;45.794;24.150;2023-05-10T03:43:29;7.68;;;5.00;;
21517;SDS011;61765;45.794;24.150;2023-05-10T03:51:37;6.70;;;5.25;;
21517;SDS011;61765;45.794;24.150;2023-05-10T03:59:42;8.93;;;4.93;;
21517;SDS011;61765;45.794;24.150;2023-05-10T04:07:50;8.43;;;4.72;;
21517;SDS011;61765;45.794;24.150;2023-05-10T04:15:56;8.32;;;4.68;;
21517;SDS011;61765;45.794;24.150;2023-05-10T04:24:04;6.75;;;4.28;;
21517;SDS011;61765;45.794;24.150;2023-05-10T04:32:10;7.30;;;4.28;;
21517;SDS011;61765;45.794;24.150;2023-05-10T04:40:18;9.63;;;4.47;;
21517;SDS011;61765;45.794;24.150;2023-05-10T04:48:24;6.63;;;4.47;;
21517;SDS011;61765;45.794;24.150;2023-05-10T04:56:32;6.90;;;3.90;;
21517;SDS011;61765;45.794;24.150;2023-05-10T05:04:37;4.72;;;3.80;;
21517;SDS011;61765;45.794;24.150;2023-05-10T05:12:45;6.15;;;3.97;;
21517;SDS011;61765;45.794;24.150;2023-05-10T05:20:51;7.30;;;3.85;;
21517;SDS011;61765;45.794;24.150;2023-05-10T05:28:59;5.95;;;4.30;;
21517;SDS011;61765;45.794;24.150;2023-05-10T05:37:04;6.50;;;4.05;;
21517;SDS011;61765;45.794;24.150;2023-05-10T05:45:12;8.48;;;4.00;;
21517;SDS011;61765;45.794;24.150;2023-05-10T05:53:18;8.73;;;4.55;;
21517;SDS011;61765;45.794;24.150;2023-05-10T06:01:26;5.35;;;3.65;;
21517;SDS011;61765;45.794;24.150;2023-05-10T06:09:32;5.82;;;3.72;;
21517;SDS011;61765;45.794;24.150;2023-05-10T06:17:40;6.90;;;3.55;;
21517;SDS011;61765;45.794;24.150;2023-05-10T06:25:46;8.88;;;3.00;;
21517;SDS011;61765;45.794;24.150;2023-05-10T06:33:54;5.13;;;3.10;;
21517;SDS011;61765;45.794;24.150;2023-05-10T06:41:59;5.63;;;2.65;;
21517;SDS011;61765;45.794;24.150;2023-05-10T06:50:10;3.70;;;2.50;;
21517;SDS011;61765;45.794;24.150;2023-05-10T06:58:15;2.17;;;1.90;;
21517;SDS011;61765;45.794;24.150;2023-05-10T07:06:23;2.72;;;2.10;;
21517;SDS011;61765;45.794;24.150;2023-05-10T07:14:34;2.63;;;2.20;;
21517;SDS011;61765;45.794;24.150;2023-05-10T07:22:42;1.92;;;1.60;;
21517;SDS011;61765;45.794;24.150;2023-05-10T07:30:47;1.90;;;1.70;;
21517;SDS011;61765;45.794;24.150;2023-05-10T07:38:57;2.78;;;1.48;;
21517;SDS011;61765;45.794;24.150;2023-05-10T07:47:03;3.47;;;1.63;;
21517;SDS011;61765;45.794;24.150;2023-05-10T07:55:11;2.08;;;1.77;;
21517;SDS011;61765;45.794;24.150;2023-05-10T08:03:20;2.50;;;1.60;;
21517;SDS011;61765;45.794;24.150;2023-05-10T08:11:28;2.70;;;1.73;;
21517;SDS011;61765;45.794;24.150;2023-05-10T08:19:35;2.50;;;2.03;;
21517;SDS011;61765;45.794;24.150;2023-05-10T08:27:44;2.10;;;1.80;;
21517;SDS011;61765;45.794;24.150;2023-05-10T08:35:49;3.55;;;1.70;;
21517;SDS011;61765;45.794;24.150;2023-05-10T08:43:57;2.72;;;1.98;;
21517;SDS011;61765;45.794;24.150;2023-05-10T08:52:04;2.33;;;2.03;;
21517;SDS011;61765;45.794;24.150;2023-05-10T09:00:14;5.63;;;1.70;;
21517;SDS011;61765;45.794;24.150;2023-05-10T09:08:21;2.33;;;1.80;;
21517;SDS011;61765;45.794;24.150;2023-05-10T09:16:32;2.72;;;1.63;;
21517;SDS011;61765;45.794;24.150;2023-05-10T09:24:38;3.05;;;1.90;;
21517;SDS011;61765;45.794;24.150;2023-05-10T09:32:49;2.42;;;2.10;;
21517;SDS011;61765;45.794;24.150;2023-05-10T09:40:55;6.55;;;1.80;;
21517;SDS011;61765;45.794;24.150;2023-05-10T09:49:03;2.38;;;1.88;;
21517;SDS011;61765;45.794;24.150;2023-05-10T09:57:14;4.35;;;2.35;;
21517;SDS011;61765;45.794;24.150;2023-05-10T10:05:30;3.00;;;1.90;;
21517;SDS011;61765;45.794;24.150;2023-05-10T10:13:38;2.35;;;2.03;;
21517;SDS011;61765;45.794;24.150;2023-05-10T10:21:47;2.67;;;2.03;;
21517;SDS011;61765;45.794;24.150;2023-05-10T10:29:58;4.25;;;2.20;;
21517;SDS011;61765;45.794;24.150;2023-05-10T10:38:11;4.72;;;2.00;;
21517;SDS011;61765;45.794;24.150;2023-05-10T10:46:18;2.70;;;2.17;;
21517;SDS011;61765;45.794;24.150;2023-05-10T10:54:29;2.10;;;1.88;;
21517;SDS011;61765;45.794;24.150;2023-05-10T11:02:34;3.53;;;2.05;;
21517;SDS011;61765;45.794;24.150;2023-05-10T11:11:02;3.00;;;1.88;;
21517;SDS011;61765;45.794;24.150;2023-05-10T11:19:10;2.00;;;1.70;;
21517;SDS011;61765;45.794;24.150;2023-05-10T11:27:22;5.05;;;2.78;;
21517;SDS011;61765;45.794;24.150;2023-05-10T11:35:28;2.75;;;1.60;;
21517;SDS011;61765;45.794;24.150;2023-05-10T11:43:36;3.85;;;1.45;;
21517;SDS011;61765;45.794;24.150;2023-05-10T11:51:43;1.80;;;1.60;;
21517;SDS011;61765;45.794;24.150;2023-05-10T11:59:55;1.52;;;1.40;;
21517;SDS011;61765;45.794;24.150;2023-05-10T12:08:10;3.40;;;1.42;;
21517;SDS011;61765;45.794;24.150;2023-05-10T12:16:21;3.47;;;1.40;;
21517;SDS011;61765;45.794;24.150;2023-05-10T12:24:28;3.13;;;1.50;;
21517;SDS011;61765;45.794;24.150;2023-05-10T12:32:43;3.33;;;1.73;;
21517;SDS011;61765;45.794;24.150;2023-05-10T12:40:50;4.10;;;1.92;;
21517;SDS011;61765;45.794;24.150;2023-05-10T12:48:59;2.03;;;1.05;;
21517;SDS011;61765;45.794;24.150;2023-05-10T12:57:10;4.32;;;1.52;;
21517;SDS011;61765;45.794;24.150;2023-05-10T13:05:18;5.47;;;1.70;;
21517;SDS011;61765;45.794;24.150;2023-05-10T13:13:24;2.40;;;1.77;;
21517;SDS011;61765;45.794;24.150;2023-05-10T13:21:32;1.60;;;1.50;;
21517;SDS011;61765;45.794;24.150;2023-05-10T13:29:38;3.80;;;1.77;;
21517;SDS011;61765;45.794;24.150;2023-05-10T13:37:48;2.80;;;1.95;;
21517;SDS011;61765;45.794;24.150;2023-05-10T13:45:55;1.90;;;1.80;;
21517;SDS011;61765;45.794;24.150;2023-05-10T13:54:03;2.60;;;2.05;;
21517;SDS011;61765;45.794;24.150;2023-05-10T14:02:09;5.28;;;1.98;;
21517;SDS011;61765;45.794;24.150;2023-05-10T14:10:17;3.30;;;1.65;;
21517;SDS011;61765;45.794;24.150;2023-05-10T14:18:23;3.47;;;2.92;;
21517;SDS011;61765;45.794;24.150;2023-05-10T14:26:31;2.30;;;1.88;;
21517;SDS011;61765;45.794;24.150;2023-05-10T14:34:37;2.45;;;1.60;;
21517;SDS011;61765;45.794;24.150;2023-05-10T14:42:44;1.95;;;1.70;;
21517;SDS011;61765;45.794;24.150;2023-05-10T14:50:50;2.13;;;1.58;;
21517;SDS011;61765;45.794;24.150;2023-05-10T14:58:58;6.15;;;1.75;;
21517;SDS011;61765;45.794;24.150;2023-05-10T15:07:06;3.45;;;2.10;;
21517;SDS011;61765;45.794;24.150;2023-05-10T15:15:14;2.60;;;2.10;;
21517;SDS011;61765;45.794;24.150;2023-05-10T15:23:22;5.50;;;2.40;;
21517;SDS011;61765;45.794;24.150;2023-05-10T15:31:30;3.60;;;2.60;;
21517;SDS011;61765;45.794;24.150;2023-05-10T15:39:38;6.10;;;2.90;;
21517;SDS011;61765;45.794;24.150;2023-05-10T15:47:46;4.78;;;2.90;;
21517;SDS011;61765;45.794;24.150;2023-05-10T15:55:51;6.35;;;2.90;;
21517;SDS011;61765;45.794;24.150;2023-05-10T16:03:59;3.97;;;2.45;;
21517;SDS011;61765;45.794;24.150;2023-05-10T16:12:05;5.90;;;3.20;;
21517;SDS011;61765;45.794;24.150;2023-05-10T16:20:14;2.33;;;1.95;;
21517;SDS011;61765;45.794;24.150;2023-05-10T16:28:19;4.70;;;2.50;;
21517;SDS011;61765;45.794;24.150;2023-05-10T16:36:27;5.53;;;2.50;;
21517;SDS011;61765;45.794;24.150;2023-05-10T16:44:34;5.82;;;2.70;;
21517;SDS011;61765;45.794;24.150;2023-05-10T16:52:42;5.30;;;2.08;;
21517;SDS011;61765;45.794;24.150;2023-05-10T17:00:48;3.17;;;2.08;;
21517;SDS011;61765;45.794;24.150;2023-05-10T17:08:56;4.70;;;2.20;;
21517;SDS011;61765;45.794;24.150;2023-05-10T17:17:01;3.97;;;2.33;;
21517;SDS011;61765;45.794;24.150;2023-05-10T17:25:10;10.43;;;3.00;;
21517;SDS011;61765;45.794;24.150;2023-05-10T17:33:16;5.60;;;2.70;;
21517;SDS011;61765;45.794;24.150;2023-05-10T17:41:25;7.50;;;2.85;;
21517;SDS011;61765;45.794;24.150;2023-05-10T17:49:33;6.18;;;2.92;;
21517;SDS011;61765;45.794;24.150;2023-05-10T17:57:43;6.60;;;3.15;;
21517;SDS011;61765;45.794;24.150;2023-05-10T18:05:51;4.90;;;2.92;;
21517;SDS011;61765;45.794;24.150;2023-05-10T18:13:59;7.03;;;3.28;;
21517;SDS011;61765;45.794;24.150;2023-05-10T18:30:23;4.80;;;2.67;;
21517;SDS011;61765;45.794;24.150;2023-05-10T18:38:28;6.45;;;3.38;;
21517;SDS011;61765;45.794;24.150;2023-05-10T18:46:37;6.50;;;3.13;;
21517;SDS011;61765;45.794;24.150;2023-05-10T18:54:44;5.10;;;3.20;;
21517;SDS011;61765;45.794;24.150;2023-05-10T19:02:52;5.13;;;3.42;;
21517;SDS011;61765;45.794;24.150;2023-05-10T19:10:58;9.63;;;4.57;;
21517;SDS011;61765;45.794;24.150;2023-05-10T19:19:06;7.93;;;3.10;;
21517;SDS011;61765;45.794;24.150;2023-05-10T19:27:16;4.83;;;2.80;;
21517;SDS011;61765;45.794;24.150;2023-05-10T19:35:24;3.50;;;2.45;;
21517;SDS011;61765;45.794;24.150;2023-05-10T19:43:31;6.28;;;2.72;;
21517;SDS011;61765;45.794;24.150;2023-05-10T19:51:40;4.63;;;2.97;;
21517;SDS011;61765;45.794;24.150;2023-05-10T19:59:46;3.58;;;2.88;;
21517;SDS011;61765;45.794;24.150;2023-05-10T20:07:54;6.65;;;3.15;;
21517;SDS011;61765;45.794;24.150;2023-05-10T20:15:59;3.30;;;2.97;;
21517;SDS011;61765;45.794;24.150;2023-05-10T20:24:08;4.63;;;3.25;;
21517;SDS011;61765;45.794;24.150;2023-05-10T20:32:14;6.90;;;3.47;;
21517;SDS011;61765;45.794;24.150;2023-05-10T20:40:23;4.43;;;3.10;;
21517;SDS011;61765;45.794;24.150;2023-05-10T20:48:28;3.63;;;2.95;;
21517;SDS011;61765;45.794;24.150;2023-05-10T20:56:37;6.85;;;3.17;;
21517;SDS011;61765;45.794;24.150;2023-05-10T21:04:44;3.95;;;2.90;;
21517;SDS011;61765;45.794;24.150;2023-05-10T21:12:55;7.43;;;3.17;;
21517;SDS011;61765;45.794;24.150;2023-05-10T21:21:00;7.38;;;3.50;;
21517;SDS011;61765;45.794;24.150;2023-05-10T21:29:09;5.80;;;3.70;;
21517;SDS011;61765;45.794;24.150;2023-05-10T21:37:14;6.22;;;3.63;;
21517;SDS011;61765;45.794;24.150;2023-05-10T21:45:22;3.85;;;3.22;;
21517;SDS011;61765;45.794;24.150;2023-05-10T21:53:30;7.10;;;2.90;;
21517;SDS011;61765;45.794;24.150;2023-05-10T22:01:38;5.22;;;3.30;;
21517;SDS011;61765;45.794;24.150;2023-05-10T22:09:44;5.43;;;3.38;;
21517;SDS011;61765;45.794;24.150;2023-05-10T22:17:52;5.03;;;3.47;;
21517;SDS011;61765;45.794;24.150;2023-05-10T22:25:59;5.60;;;3.78;;
21517;SDS011;61765;45.794;24.150;2023-05-10T22:34:07;4.05;;;3.25;;
21517;SDS011;61765;45.794;24.150;2023-05-10T22:42:13;6.07;;;2.90;;
21517;SDS011;61765;45.794;24.150;2023-05-10T22:50:21;3.40;;;2.95;;
21517;SDS011;61765;45.794;24.150;2023-05-10T22:58:27;4.70;;;3.28;;
21517;SDS011;61765;45.794;24.150;2023-05-10T23:06:35;6.38;;;3.05;;
21517;SDS011;61765;45.794;24.150;2023-05-10T23:14:40;4.40;;;3.20;;
21517;SDS011;61765;45.794;24.150;2023-05-10T23:22:49;5.10;;;3.30;;
21517;SDS011;61765;45.794;24.150;2023-05-10T23:30:55;5.85;;;3.03;;
21517;SDS011;61765;45.794;24.150;2023-05-10T23:39:04;4.25;;;3.60;;
21517;SDS011;61765;45.794;24.150;2023-05-10T23:47:09;4.30;;;3.35;;
21517;SDS011;61765;45.794;24.150;2023-05-10T23:55:17;4.15;;;3.20;;
